createdAt,value
2023-04-22T05:35:54.404Z,5.1
2023-04-22T06:53:23.719Z,6.1
2023-04-22T06:58:54.670Z,6.3
2023-04-22T07:15:46.939Z,6.6
2023-04-22T07:21:21.059Z,6.4
2023-04-22T07:32:38.558Z,6.6
2023-04-22T07:37:55.470Z,6.6
2023-04-22T07:49:23.518Z,6.9
2023-04-22T07:54:35.215Z,6.8
2023-04-22T08:00:04.851Z,7.2
2023-04-22T08:05:56.803Z,7.1
2023-04-22T08:11:14.175Z,7.3
2023-04-22T08:22:21.583Z,8.6
2023-04-22T08:28:04.645Z,8.5
2023-04-22T08:33:38.870Z,8.9
2023-04-22T08:39:30.523Z,8.8
2023-04-22T08:44:53.957Z,9.1
2023-04-22T08:50:20.747Z,9.2
2023-04-22T08:55:58.534Z,10.1
2023-04-22T09:01:22.718Z,10.4
2023-04-22T09:07:01.691Z,10.1
2023-04-22T09:12:44.387Z,10.3
2023-04-22T09:18:19.438Z,12
2023-04-22T09:23:59.688Z,11
2023-04-22T09:29:31.742Z,11.2
2023-04-22T09:34:50.533Z,11.3
2023-04-22T09:40:41.835Z,12.5
2023-04-22T09:46:02.075Z,11.5
2023-04-22T09:51:50.218Z,10.9
2023-04-22T09:57:12.419Z,10.6
2023-04-22T10:03:12.163Z,10.7
2023-04-22T10:08:39.640Z,10.7
2023-04-22T10:13:53.960Z,10.6
2023-04-22T10:19:49.441Z,10.9
2023-04-22T10:25:10.849Z,10.8
2023-04-22T10:30:52.777Z,10.9
2023-04-22T10:36:16.895Z,12.2
2023-04-22T10:41:54.011Z,11.7
2023-04-22T10:47:23.202Z,12.6
2023-04-22T10:53:18.926Z,12.8
2023-04-22T10:58:35.426Z,12.4
2023-04-22T11:04:18.457Z,12.6
2023-04-22T11:09:44.467Z,12.8
2023-04-22T11:15:37.139Z,12.3
2023-04-22T11:21:13.116Z,12
2023-04-22T11:26:47.916Z,13.3
2023-04-22T11:37:56.908Z,12.9
2023-04-22T11:43:42.230Z,14.6
2023-04-22T11:49:03.502Z,15.3
2023-04-22T11:54:46.633Z,15.3
2023-04-22T12:00:11.698Z,15.9
2023-04-22T12:06:01.374Z,15.8
2023-04-22T12:11:20.895Z,15.7
2023-04-22T12:17:04.053Z,15.7
2023-04-22T12:22:52.516Z,16.6
2023-04-22T12:28:05.080Z,16
2023-04-22T12:33:48.132Z,15.6
2023-04-22T12:39:32.770Z,15
2023-04-22T12:45:16.056Z,14.8
2023-04-22T12:56:24.247Z,14
2023-04-22T13:07:23.731Z,13.7
2023-04-22T13:12:45.726Z,13.6
2023-04-22T13:18:28.682Z,13.5
2023-04-22T13:35:20.354Z,12.9
2023-04-22T13:51:55.693Z,12.8
2023-04-22T14:02:58.346Z,12.8
2023-04-22T14:53:22.376Z,13
2023-04-22T16:16:54.994Z,13.2
2023-04-22T16:22:47.652Z,13.1
2023-04-22T16:39:22.921Z,13.2
2023-04-22T18:14:13.702Z,11.9
